QFA8435 RJCC-RJCM
Flight info
| Callsign | QFA8435 |
|---|---|
| Flight time | 0h 32m |
| Altitude | 17000 |
| Route | TO2BOK BOKSO V5 OSROB V4 TBE DCT |
| Aircraft | B744/H-SDE1FGHIJ1RWXYZ/LB1 |
Departure
| Time | 2026-04-14 13:03 |
|---|---|
| Airport | New Chitose Airport (RJCC) |
Arrival
| Time | 2026-04-14 13:35 |
|---|---|
| Airport | Memanbetsu Airport (RJCM) |
| Time | Latitude | Longitude | Altitude | Speed | Heading |
|---|---|---|---|---|---|
| 2026-04-14 12:26 | 42.78178 | 141.68333 | 85 ft | 0 kts | 228° |
| 2026-04-14 12:47 | 42.78179 | 141.68334 | 85 ft | 1 kts | 228° |
| 2026-04-14 12:47 | 42.78196 | 141.68360 | 85 ft | 4 kts | 228° |
| 2026-04-14 12:47 | 42.78217 | 141.68392 | 85 ft | 5 kts | 229° |
| 2026-04-14 12:48 | 42.78232 | 141.68427 | 85 ft | 3 kts | 255° |
| 2026-04-14 12:48 | 42.78234 | 141.68436 | 85 ft | 0 kts | 256° |
| 2026-04-14 12:48 | 42.78236 | 141.68449 | 85 ft | 4 kts | 256° |
| 2026-04-14 12:49 | 42.78249 | 141.68488 | 85 ft | 4 kts | 230° |
| 2026-04-14 12:49 | 42.78274 | 141.68513 | 85 ft | 4 kts | 200° |
| 2026-04-14 12:49 | 42.78283 | 141.68517 | 85 ft | 0 kts | 197° |
| 2026-04-14 12:52 | 42.78267 | 141.68511 | 85 ft | 5 kts | 197° |
| 2026-04-14 12:53 | 42.78227 | 141.68495 | 85 ft | 8 kts | 187° |
| 2026-04-14 12:53 | 42.78157 | 141.68514 | 85 ft | 12 kts | 165° |
| 2026-04-14 12:53 | 42.78068 | 141.68533 | 85 ft | 11 kts | 175° |
| 2026-04-14 12:53 | 42.78021 | 141.68548 | 85 ft | 9 kts | 131° |
| 2026-04-14 12:54 | 42.78011 | 141.68643 | 85 ft | 12 kts | 87° |
| 2026-04-14 12:54 | 42.77995 | 141.68738 | 85 ft | 11 kts | 161° |
| 2026-04-14 12:54 | 42.77905 | 141.68752 | 85 ft | 16 kts | 176° |
| 2026-04-14 12:54 | 42.77773 | 141.68775 | 85 ft | 21 kts | 171° |
| 2026-04-14 12:55 | 42.77612 | 141.68806 | 85 ft | 25 kts | 172° |
| 2026-04-14 12:55 | 42.77433 | 141.68838 | 85 ft | 27 kts | 173° |
| 2026-04-14 12:55 | 42.77243 | 141.68872 | 85 ft | 27 kts | 172° |
| 2026-04-14 12:55 | 42.77051 | 141.68908 | 85 ft | 28 kts | 172° |
| 2026-04-14 12:56 | 42.76905 | 141.68933 | 85 ft | 18 kts | 173° |
| 2026-04-14 12:56 | 42.76781 | 141.68956 | 85 ft | 18 kts | 172° |
| 2026-04-14 12:56 | 42.76655 | 141.68979 | 85 ft | 19 kts | 172° |
| 2026-04-14 12:56 | 42.76526 | 141.69003 | 85 ft | 20 kts | 172° |
| 2026-04-14 12:57 | 42.76392 | 141.69027 | 85 ft | 16 kts | 172° |
| 2026-04-14 12:57 | 42.76284 | 141.69047 | 85 ft | 14 kts | 172° |
| 2026-04-14 12:57 | 42.76209 | 141.69061 | 85 ft | 9 kts | 172° |
| 2026-04-14 12:57 | 42.76177 | 141.69080 | 85 ft | 6 kts | 114° |
| 2026-04-14 12:58 | 42.76171 | 141.69122 | 85 ft | 0 kts | 87° |
| 2026-04-14 12:59 | 42.76171 | 141.69135 | 85 ft | 4 kts | 87° |
| 2026-04-14 12:59 | 42.76175 | 141.69195 | 85 ft | 8 kts | 84° |
| 2026-04-14 12:59 | 42.76181 | 141.69253 | 85 ft | 5 kts | 63° |
| 2026-04-14 12:59 | 42.76221 | 141.69273 | 85 ft | 8 kts | 356° |
| 2026-04-14 13:00 | 42.76227 | 141.69273 | 85 ft | 0 kts | 356° |
| 2026-04-14 13:00 | 42.76238 | 141.69271 | 85 ft | 4 kts | 352° |
| 2026-04-14 13:01 | 42.76242 | 141.69270 | 85 ft | 0 kts | 352° |
| 2026-04-14 13:02 | 42.76296 | 141.69260 | 85 ft | 16 kts | 352° |
| 2026-04-14 13:02 | 42.76626 | 141.69200 | 85 ft | 80 kts | 352° |
| 2026-04-14 13:02 | 42.77377 | 141.69068 | 85 ft | 134 kts | 352° |
| 2026-04-14 13:02 | 42.78421 | 141.68880 | 253 ft | 162 kts | 352° |
| 2026-04-14 13:03 | 42.79532 | 141.68700 | 778 ft | 160 kts | 354° |
| 2026-04-14 13:03 | 42.80634 | 141.68540 | 1313 ft | 163 kts | 355° |
| 2026-04-14 13:03 | 42.81782 | 141.68863 | 1656 ft | 184 kts | 34° |
| 2026-04-14 13:03 | 42.82439 | 141.70430 | 2065 ft | 206 kts | 78° |
| 2026-04-14 13:04 | 42.82134 | 141.72422 | 2481 ft | 228 kts | 115° |
| 2026-04-14 13:04 | 42.81296 | 141.74371 | 2931 ft | 247 kts | 119° |
| 2026-04-14 13:04 | 42.80374 | 141.76447 | 3433 ft | 264 kts | 119° |
| 2026-04-14 13:04 | 42.79406 | 141.78650 | 4235 ft | 275 kts | 119° |
| 2026-04-14 13:05 | 42.78416 | 141.80938 | 4827 ft | 283 kts | 118° |
| 2026-04-14 13:05 | 42.77426 | 141.83265 | 4912 ft | 285 kts | 118° |
| 2026-04-14 13:05 | 42.76455 | 141.85566 | 4897 ft | 283 kts | 118° |
| 2026-04-14 13:05 | 42.75477 | 141.87890 | 4887 ft | 283 kts | 118° |
| 2026-04-14 13:06 | 42.74501 | 141.90209 | 4894 ft | 283 kts | 118° |
| 2026-04-14 13:06 | 42.73739 | 141.92672 | 5154 ft | 288 kts | 98° |
| 2026-04-14 13:06 | 42.73716 | 141.95348 | 6232 ft | 282 kts | 79° |
| 2026-04-14 13:06 | 42.73999 | 141.98006 | 7268 ft | 286 kts | 76° |
| 2026-04-14 13:07 | 42.74346 | 142.00713 | 8253 ft | 293 kts | 75° |
| 2026-04-14 13:07 | 42.74728 | 142.03480 | 9236 ft | 302 kts | 75° |
| 2026-04-14 13:07 | 42.75130 | 142.06315 | 10184 ft | 310 kts | 75° |
| 2026-04-14 13:07 | 42.75562 | 142.09308 | 10851 ft | 336 kts | 75° |
| 2026-04-14 13:08 | 42.76020 | 142.12512 | 11454 ft | 357 kts | 76° |
| 2026-04-14 13:08 | 42.76498 | 142.15923 | 12006 ft | 379 kts | 76° |
| 2026-04-14 13:08 | 42.76824 | 142.18297 | 12338 ft | 392 kts | 76° |
| 2026-04-14 13:08 | 42.77333 | 142.22048 | 12856 ft | 411 kts | 77° |
| 2026-04-14 13:09 | 42.77851 | 142.25928 | 13554 ft | 422 kts | 77° |
| 2026-04-14 13:09 | 42.78371 | 142.29886 | 14300 ft | 429 kts | 77° |
| 2026-04-14 13:09 | 42.78894 | 142.33920 | 15058 ft | 439 kts | 78° |
| 2026-04-14 13:09 | 42.79423 | 142.38023 | 15813 ft | 443 kts | 78° |
| 2026-04-14 13:10 | 42.79959 | 142.42182 | 16537 ft | 450 kts | 77° |
| 2026-04-14 13:10 | 42.80504 | 142.46391 | 16940 ft | 451 kts | 77° |
| 2026-04-14 13:10 | 42.81050 | 142.50593 | 17075 ft | 451 kts | 77° |
| 2026-04-14 13:10 | 42.81600 | 142.54795 | 17088 ft | 448 kts | 77° |
| 2026-04-14 13:11 | 42.82147 | 142.58977 | 17085 ft | 446 kts | 77° |
| 2026-04-14 13:11 | 42.82694 | 142.63159 | 17084 ft | 448 kts | 77° |
| 2026-04-14 13:11 | 42.83239 | 142.67335 | 17083 ft | 448 kts | 77° |
| 2026-04-14 13:11 | 42.83783 | 142.71517 | 17083 ft | 450 kts | 77° |
| 2026-04-14 13:12 | 42.84327 | 142.75703 | 17083 ft | 448 kts | 77° |
| 2026-04-14 13:12 | 42.84869 | 142.79888 | 17083 ft | 448 kts | 77° |
| 2026-04-14 13:12 | 42.85408 | 142.84067 | 17084 ft | 449 kts | 77° |
| 2026-04-14 13:12 | 42.85944 | 142.88246 | 17084 ft | 448 kts | 77° |
| 2026-04-14 13:13 | 42.86478 | 142.92426 | 17084 ft | 448 kts | 78° |
| 2026-04-14 13:13 | 42.87023 | 142.96605 | 17083 ft | 448 kts | 77° |
| 2026-04-14 13:13 | 42.87595 | 143.00785 | 17083 ft | 447 kts | 77° |
| 2026-04-14 13:13 | 42.88181 | 143.04960 | 17083 ft | 450 kts | 76° |
| 2026-04-14 13:14 | 42.88770 | 143.09137 | 17083 ft | 448 kts | 76° |
| 2026-04-14 13:14 | 42.89357 | 143.13313 | 17083 ft | 449 kts | 76° |
| 2026-04-14 13:14 | 42.89944 | 143.17493 | 17083 ft | 450 kts | 76° |
| 2026-04-14 13:14 | 42.90528 | 143.21677 | 17083 ft | 449 kts | 77° |
| 2026-04-14 13:15 | 42.91107 | 143.25854 | 17082 ft | 449 kts | 77° |
| 2026-04-14 13:15 | 42.91685 | 143.30038 | 17083 ft | 449 kts | 76° |
| 2026-04-14 13:15 | 42.92577 | 143.34082 | 17080 ft | 442 kts | 61° |
| 2026-04-14 13:15 | 42.94198 | 143.37579 | 17083 ft | 431 kts | 44° |
| 2026-04-14 13:16 | 42.96363 | 143.40328 | 17086 ft | 423 kts | 30° |
| 2026-04-14 13:16 | 42.98752 | 143.42630 | 17086 ft | 420 kts | 26° |
| 2026-04-14 13:16 | 43.01208 | 143.44746 | 17085 ft | 417 kts | 24° |
| 2026-04-14 13:16 | 43.03706 | 143.46762 | 17085 ft | 417 kts | 22° |
| 2026-04-14 13:17 | 43.06214 | 143.48732 | 17085 ft | 415 kts | 22° |
| 2026-04-14 13:17 | 43.08728 | 143.50697 | 17085 ft | 416 kts | 22° |
| 2026-04-14 13:17 | 43.11234 | 143.52675 | 17085 ft | 417 kts | 22° |
| 2026-04-14 13:17 | 43.13697 | 143.54646 | 17085 ft | 416 kts | 23° |
| 2026-04-14 13:18 | 43.16189 | 143.56669 | 17065 ft | 402 kts | 23° |
| 2026-04-14 13:18 | 43.18543 | 143.58605 | 16700 ft | 392 kts | 23° |
| 2026-04-14 13:18 | 43.20863 | 143.60502 | 16130 ft | 394 kts | 23° |
| 2026-04-14 13:18 | 43.23213 | 143.62412 | 15603 ft | 391 kts | 24° |
| 2026-04-14 13:19 | 43.25527 | 143.64297 | 15171 ft | 383 kts | 24° |
| 2026-04-14 13:19 | 43.27783 | 143.66147 | 14835 ft | 374 kts | 24° |
| 2026-04-14 13:19 | 43.29990 | 143.67964 | 14501 ft | 367 kts | 24° |
| 2026-04-14 13:19 | 43.32177 | 143.69764 | 14053 ft | 369 kts | 24° |
| 2026-04-14 13:20 | 43.34393 | 143.71577 | 13568 ft | 370 kts | 24° |
| 2026-04-14 13:20 | 43.36579 | 143.73375 | 13222 ft | 363 kts | 24° |
| 2026-04-14 13:20 | 43.38720 | 143.75145 | 12918 ft | 355 kts | 25° |
| 2026-04-14 13:20 | 43.40824 | 143.76885 | 12551 ft | 351 kts | 25° |
| 2026-04-14 13:21 | 43.42916 | 143.78613 | 12150 ft | 350 kts | 25° |
| 2026-04-14 13:21 | 43.44979 | 143.80322 | 11818 ft | 343 kts | 25° |
| 2026-04-14 13:21 | 43.47002 | 143.82002 | 11515 ft | 336 kts | 25° |
| 2026-04-14 13:21 | 43.48988 | 143.83667 | 11162 ft | 333 kts | 25° |
| 2026-04-14 13:22 | 43.50960 | 143.85325 | 10762 ft | 331 kts | 25° |
| 2026-04-14 13:22 | 43.52906 | 143.86966 | 10516 ft | 322 kts | 25° |
| 2026-04-14 13:22 | 43.54764 | 143.88546 | 10393 ft | 307 kts | 25° |
| 2026-04-14 13:22 | 43.56536 | 143.90059 | 10271 ft | 293 kts | 25° |
| 2026-04-14 13:23 | 43.58231 | 143.91504 | 10146 ft | 281 kts | 25° |
| 2026-04-14 13:23 | 43.59877 | 143.92898 | 9953 ft | 275 kts | 25° |
| 2026-04-14 13:23 | 43.61509 | 143.94271 | 9673 ft | 276 kts | 25° |
| 2026-04-14 13:23 | 43.63244 | 143.95310 | 9332 ft | 268 kts | 7° |
| 2026-04-14 13:24 | 43.65056 | 143.95752 | 9050 ft | 263 kts | 2° |
| 2026-04-14 13:24 | 43.68643 | 143.96382 | 8519 ft | 258 kts | 1° |
| 2026-04-14 13:24 | 43.70383 | 143.96665 | 8262 ft | 254 kts | 2° |
| 2026-04-14 13:25 | 43.72148 | 143.96957 | 8001 ft | 251 kts | 2° |
| 2026-04-14 13:25 | 43.73847 | 143.97245 | 7752 ft | 249 kts | 2° |
| 2026-04-14 13:26 | 43.78955 | 143.98135 | 7013 ft | 245 kts | 3° |
| 2026-04-14 13:26 | 43.80643 | 143.98433 | 6771 ft | 245 kts | 4° |
| 2026-04-14 13:26 | 43.82327 | 143.98732 | 6528 ft | 243 kts | 4° |
| 2026-04-14 13:26 | 43.84005 | 143.99030 | 6285 ft | 243 kts | 4° |
| 2026-04-14 13:27 | 43.85677 | 143.99327 | 6042 ft | 241 kts | 4° |
| 2026-04-14 13:27 | 43.87344 | 143.99624 | 5800 ft | 241 kts | 4° |
| 2026-04-14 13:27 | 43.89003 | 143.99919 | 5558 ft | 240 kts | 4° |
| 2026-04-14 13:27 | 43.90657 | 144.00214 | 5317 ft | 239 kts | 5° |
| 2026-04-14 13:28 | 43.92309 | 144.00508 | 5075 ft | 239 kts | 5° |
| 2026-04-14 13:28 | 43.93950 | 144.00802 | 4836 ft | 237 kts | 5° |
| 2026-04-14 13:28 | 43.95578 | 144.01095 | 4606 ft | 234 kts | 5° |
| 2026-04-14 13:28 | 43.97142 | 144.01382 | 4519 ft | 218 kts | 5° |
| 2026-04-14 13:29 | 43.98608 | 144.01660 | 4503 ft | 209 kts | 5° |
| 2026-04-14 13:29 | 44.00037 | 144.01925 | 4491 ft | 205 kts | 5° |
| 2026-04-14 13:29 | 44.01403 | 144.02186 | 4460 ft | 193 kts | 8° |
| 2026-04-14 13:29 | 44.02648 | 144.02854 | 4309 ft | 194 kts | 25° |
| 2026-04-14 13:30 | 44.03567 | 144.04210 | 4058 ft | 199 kts | 60° |
| 2026-04-14 13:30 | 44.03898 | 144.06079 | 3847 ft | 202 kts | 81° |
| 2026-04-14 13:30 | 44.03996 | 144.08029 | 3607 ft | 202 kts | 83° |
| 2026-04-14 13:30 | 44.04097 | 144.09972 | 3344 ft | 201 kts | 82° |
| 2026-04-14 13:31 | 44.04048 | 144.11888 | 3088 ft | 198 kts | 99° |
| 2026-04-14 13:31 | 44.03442 | 144.13530 | 2824 ft | 189 kts | 130° |
| 2026-04-14 13:31 | 44.02346 | 144.14441 | 2617 ft | 185 kts | 166° |
| 2026-04-14 13:31 | 44.01090 | 144.14728 | 2417 ft | 182 kts | 173° |
| 2026-04-14 13:32 | 43.99865 | 144.14880 | 2196 ft | 172 kts | 173° |
| 2026-04-14 13:32 | 43.98720 | 144.15020 | 1990 ft | 164 kts | 172° |
| 2026-04-14 13:32 | 43.97584 | 144.15172 | 1762 ft | 161 kts | 172° |
| 2026-04-14 13:32 | 43.96494 | 144.15319 | 1548 ft | 159 kts | 172° |
| 2026-04-14 13:33 | 43.95395 | 144.15463 | 1338 ft | 158 kts | 172° |
| 2026-04-14 13:33 | 43.94302 | 144.15603 | 1130 ft | 158 kts | 173° |
| 2026-04-14 13:33 | 43.93199 | 144.15745 | 920 ft | 161 kts | 173° |
| 2026-04-14 13:33 | 43.92084 | 144.15892 | 709 ft | 161 kts | 173° |
| 2026-04-14 13:34 | 43.89878 | 144.16168 | 285 ft | 157 kts | 174° |
| 2026-04-14 13:34 | 43.88790 | 144.16317 | 122 ft | 154 kts | 175° |
| 2026-04-14 13:34 | 43.87897 | 144.16423 | 123 ft | 102 kts | 175° |
| 2026-04-14 13:35 | 43.87387 | 144.16492 | 123 ft | 47 kts | 173° |
| 2026-04-14 13:35 | 43.87192 | 144.16520 | 123 ft | 24 kts | 174° |
| 2026-04-14 13:35 | 43.87057 | 144.16538 | 123 ft | 11 kts | 174° |
| 2026-04-14 13:35 | 43.86986 | 144.16546 | 123 ft | 6 kts | 185° |
| 2026-04-14 13:36 | 43.86952 | 144.16508 | 123 ft | 7 kts | 256° |
| 2026-04-14 13:36 | 43.86946 | 144.16433 | 123 ft | 9 kts | 270° |
| 2026-04-14 13:36 | 43.86961 | 144.16342 | 123 ft | 11 kts | 316° |
| 2026-04-14 13:36 | 43.87033 | 144.16308 | 123 ft | 12 kts | 355° |
| 2026-04-14 13:37 | 43.87116 | 144.16299 | 123 ft | 12 kts | 355° |
| 2026-04-14 13:37 | 43.87200 | 144.16290 | 123 ft | 12 kts | 354° |
| 2026-04-14 13:37 | 43.87285 | 144.16278 | 123 ft | 12 kts | 354° |
| 2026-04-14 13:37 | 43.87371 | 144.16265 | 123 ft | 13 kts | 353° |
| 2026-04-14 13:38 | 43.87468 | 144.16251 | 123 ft | 15 kts | 355° |
| 2026-04-14 13:38 | 43.87580 | 144.16239 | 123 ft | 17 kts | 356° |
| 2026-04-14 13:38 | 43.87707 | 144.16224 | 123 ft | 19 kts | 354° |
| 2026-04-14 13:38 | 43.87851 | 144.16204 | 123 ft | 22 kts | 354° |
| 2026-04-14 13:39 | 43.87999 | 144.16185 | 123 ft | 16 kts | 354° |
| 2026-04-14 13:39 | 43.88028 | 144.16181 | 123 ft | 0 kts | 354° |